Toyama Airport, Japan

7:38 AM JST on July 30, 2014 (GMT +0900)
Toyama (RJNT) Elev 89 ft | 36.65 °N, 137.19 °E | Change Station

Current weather conditions updated 38 minutes ago

Partly Cloudy
Partly Cloudy
81 °F
Feels Like 82 °F
N
7
Wind Variable Wind from South

Today is forecast to be Warmer than yesterday.

Today
High -- | Low -- °F
--% Chance of Precip.
Yesterday
High -- | Low -- °F
Precip. -- in
4:55 AM 6:59 PM
Waxing Crescent, 8% visible
Pressure 29.95 in
Visibility 6.2 miles
Clouds Few 6000 ft
Heat Index 82 °F
Dew Point 64 °F
Humidity 58%
Rainfall 0.00 in
Snow Depth Not available.
UV 2 out of 12
Pollen Not available.
Air Quality Not available.
Flu Activity Not available.
METAR RJNT 292200Z 18006KT 150V210 9999 FEW060 27/18 Q1014

More Conditions Fewer Conditions

Pressure 29.95 in
Visibility 6.2 miles
Clouds Few 6000 ft
Heat Index 82 °F
Dew Point 64 °F
Humidity 58%
Rainfall 0.00 in
Snow Depth Not available.
UV 2 out of 12
Pollen Not available.
Air Quality Not available.
Flu Activity Not available.
METAR RJNT 292200Z 18006KT 150V210 9999 FEW060 27/18 Q1014

More Conditions Fewer Conditions

10-Day Weather Forecast

Almanac

Astronomy

Jul. 30, 2014 Rise Set
Actual Time 4:55 AM JST 6:59 PM JST
Civil Twilight 4:26 AM JST 7:28 PM JST
Nautical Twilight 3:51 AM JST 8:03 PM JST
Astronomical Twilight 3:13 AM JST 8:41 PM JST
Moon 7:46 AM JST (7/30) 8:30 PM JST (7/30)
Length of Visible Light 15h 02m
Length of Day
14h 04m
Tomorrow will be 1m 42s shorter.
Waxing Crescent, 8% of the Moon is Illuminated
Jul 29
Waxing Crescent
Aug 3
First Quarter
Aug 10
Full
Aug 17
Last Quarter
Aug 25
New

Yesterday's Extremes

Country Highs Country Lows

Community

WunderPhotos

Upload Photos

1,738,907 photos uploaded!

Nearby

Snow Depth

Not available.

Earthquake Activity

City Distance Mag. Time & Date
No recent earthquake activity has been reported nearby.
Minimum magnitude displayed is 2.5.

Coastal Water Temperatures

Place Temperature
No Stations Reporting

Nearby Weather Stations

There are no personal weather stations in this area.